aviador You're here:

MMTP Decoded Metar

TAPACHULA in MEXICO
Report Time2018-07-21 18:40:00
UTC Time2018-07-21 19:04:19
Flight Rules vfr VFR
Wind240° at 10 kt
W.Decomp.*RWY 23: 9.9 kt HW 1.2 kt RCW
W.Rank240° ranks 5
Current wind is above 240° avg. (8.7)
Visibility9999 m
Phenomena:N/A
Clouds:Scattered 020 Hf
Expected CloudBase > 3,600 ft AGL from Temp-Dew spread
CeilingNone
Temp34°C (ISA +19)
Dew Point25°C (59% RH)
Heat Index41.8°C
QNH1010 hPa
Density Alt2,792 ft
Elevation95 ft
Report Wrong Elevation
Raw Report
METAR MMTP 211840Z 24010KT 10SM SCT020 34/25 A2984 RMK 8/800 HZY=

Extra information for MMTP:More info

Metar Taf Metar & Taf Last 4 Metars F.Rules Stats Wind Profile Meteogram Temp Stats Airport Information Weather charts Add Link Nearby VenuesMetar ALERT Operation Metar Decoded Social comments